West Concord, Minnesota
Current Conditions -  °F | °C
As of 12:53 AM on Friday 28 Nov 2014 (Local Time) from KTOB Reporting Station
Light Snow Light Snow  
Wind Chill: -6°   Ceiling: 1500
Heat Index:   Visibility: 2.5mi
Dew Point:   Wind: 12mph
Humidity: 92%   Direction: 140°SE
Pressure: 30.19"   Gusts: NA
Location:  44.15°N, 92.9°W
Report Text: KTOB 280653Z AUTO 14010KT 2 1/2SM -SN SCT008 OVC015 M13/M14 A3019 RMK AO2
Loading
Personal Weather Stations






























Interactive Weather Map New forecast layout! Learn more

10-Day Weather Forecast

Advertisements
Track Severe Weather on mobile